Time;durP1;ratioP1;P1;durP2;ratioP2;P2;SDS_P1;SDS_P2;PMS_P1;PMS_P2;Temp;Humidity;BMP_temperature;BMP_pressure;BME280_temperature;BME280_humidity;BME280_pressure;Samples;Min_cycle;Max_cycle;Signal;HPM_P1;HPM_P2
2021/12/10 00:01:13;;;;;;;7.07;3.63;;;6.20;96.30;;;;;;5019981;28;20219;-84
2021/12/10 00:03:43;;;;;;;;;;;6.30;96.20;;;;;;5014267;28;20093;-84
2021/12/10 00:06:27;;;;;;;6.55;3.08;;;6.30;95.90;;;;;;5026159;28;19913;-86
2021/12/10 00:08:59;;;;;;;9.20;3.58;;;6.30;96.00;;;;;;5036451;28;20693;-84
2021/12/10 00:11:42;;;;;;;6.20;2.80;;;6.30;96.00;;;;;;4997650;28;20081;-83
2021/12/10 00:14:11;;;;;;;5.13;3.40;;;6.30;95.90;;;;;;5021231;28;20025;-85
2021/12/10 00:16:40;;;;;;;5.72;2.78;;;6.20;96.00;;;;;;5009658;28;20388;-84
2021/12/10 00:19:20;;;;;;;5.07;2.80;;;6.30;95.90;;;;;;5030841;28;20165;-84
2021/12/10 00:21:47;;;;;;;6.15;3.13;;;6.20;95.90;;;;;;5025507;28;20123;-84
2021/12/10 00:24:13;;;;;;;4.13;2.58;;;6.20;95.90;;;;;;5025528;28;20045;-84
2021/12/10 00:26:40;;;;;;;5.60;3.05;;;6.20;95.90;;;;;;5030178;28;20060;-84
2021/12/10 00:29:07;;;;;;;4.47;2.88;;;6.20;95.80;;;;;;5023011;28;20525;-84
2021/12/10 00:31:47;;;;;;;4.70;3.15;;;6.20;95.90;;;;;;5012125;28;20475;-84
2021/12/10 00:34:26;;;;;;;4.65;2.90;;;6.20;95.80;;;;;;5038786;28;20083;-84
2021/12/10 00:36:54;;;;;;;3.60;2.78;;;6.20;95.70;;;;;;4995987;28;20029;-84
2021/12/10 00:39:24;;;;;;;6.80;3.58;;;6.20;95.60;;;;;;5002079;28;20672;-84
2021/12/10 00:41:51;;;;;;;4.28;2.85;;;6.20;95.60;;;;;;5022675;28;20033;-84
2021/12/10 00:44:17;;;;;;;3.83;3.10;;;6.20;95.60;;;;;;5002054;28;20024;-86
2021/12/10 00:46:43;;;;;;;7.90;3.30;;;6.10;95.50;;;;;;5004963;28;20028;-86
2021/12/10 00:49:09;;;;;;;7.22;3.70;;;6.10;95.50;;;;;;5023801;28;20985;-84
2021/12/10 00:51:37;;;;;;;10.13;3.70;;;6.10;95.50;;;;;;5028958;28;20036;-86
2021/12/10 00:54:04;;;;;;;6.22;3.10;;;6.10;95.60;;;;;;5030977;28;20349;-84
2021/12/10 00:56:30;;;;;;;7.43;3.10;;;6.10;95.60;;;;;;4994093;28;20063;-86
2021/12/10 00:58:56;;;;;;;4.25;2.83;;;6.00;95.50;;;;;;5016600;28;20123;-84
2021/12/10 01:01:25;;;;;;;4.72;2.67;;;6.10;95.60;;;;;;5029343;28;20041;-85
2021/12/10 01:03:56;;;;;;;6.20;2.90;;;6.00;95.50;;;;;;5032081;28;20551;-85
2021/12/10 01:06:24;;;;;;;5.60;2.67;;;6.00;95.50;;;;;;5045217;28;20106;-85
2021/12/10 01:08:55;;;;;;;5.15;2.78;;;6.00;95.60;;;;;;5000600;28;20020;-85
2021/12/10 01:11:35;;;;;;;4.50;2.10;;;6.00;95.70;;;;;;5016709;28;20107;-85
2021/12/10 01:14:19;;;;;;;3.30;2.42;;;6.00;95.60;;;;;;5005945;28;20024;-85
2021/12/10 01:25:12;;;;;;;2.88;2.05;;;6.00;96.10;;;;;;5039998;28;20055;-85
2021/12/10 01:27:41;;;;;;;5.07;2.72;;;6.10;96.20;;;;;;5024696;28;20246;-85
2021/12/10 01:30:17;;;;;;;3.85;2.45;;;6.10;96.20;;;;;;4991003;28;20052;-85
2021/12/10 01:32:57;;;;;;;5.75;2.65;;;6.10;96.20;;;;;;5039374;28;20044;-86
2021/12/10 01:35:37;;;;;;;3.75;2.20;;;6.10;96.40;;;;;;4994741;28;20138;-84
2021/12/10 01:38:05;;;;;;;4.93;2.78;;;6.20;96.50;;;;;;5012538;28;20060;-85
2021/12/10 01:40:32;;;;;;;5.22;2.40;;;6.20;96.50;;;;;;5020073;28;20045;-85
2021/12/10 01:43:08;;;;;;;3.90;2.30;;;6.20;96.50;;;;;;5011206;28;20028;-86
2021/12/10 01:45:46;;;;;;;5.13;2.58;;;6.20;96.50;;;;;;5010784;28;20405;-85
2021/12/10 01:48:16;;;;;;;3.40;2.25;;;6.30;96.50;;;;;;5020776;28;20051;-85
2021/12/10 01:50:42;;;;;;;3.42;2.00;;;6.30;96.40;;;;;;5020807;28;20021;-86
2021/12/10 01:53:12;;;;;;;5.75;2.47;;;6.30;96.30;;;;;;5024081;28;20105;-84
2021/12/10 01:55:41;;;;;;;6.50;2.28;;;6.30;96.30;;;;;;5041428;28;20611;-84
2021/12/10 01:58:10;;;;;;;3.45;1.95;;;6.30;96.20;;;;;;5014033;28;20128;-85
2021/12/10 02:00:40;;;;;;;2.63;1.92;;;6.30;96.20;;;;;;4993280;28;20100;-87
2021/12/10 02:03:06;;;;;;;4.65;2.83;;;6.30;96.20;;;;;;5021193;28;20033;-88
2021/12/10 02:05:32;;;;;;;5.25;2.40;;;6.30;96.20;;;;;;5019739;28;20032;-87
2021/12/10 02:07:58;;;;;;;5.00;2.22;;;6.30;96.20;;;;;;5008669;28;20033;-87
2021/12/10 02:10:28;;;;;;;5.00;2.25;;;6.30;96.20;;;;;;5035299;28;20039;-87
2021/12/10 02:12:54;;;;;;;2.78;1.90;;;6.30;96.20;;;;;;5028565;28;20082;-86
2021/12/10 02:15:22;;;;;;;3.92;1.80;;;6.30;96.20;;;;;;5016303;28;20120;-86
2021/12/10 02:17:50;;;;;;;2.35;1.63;;;6.30;96.20;;;;;;5012014;28;20474;-86
2021/12/10 02:20:23;;;;;;;4.50;1.80;;;6.30;96.20;;;;;;5013006;28;20031;-86
2021/12/10 02:22:51;;;;;;;3.60;1.75;;;6.30;96.20;;;;;;5011787;28;20025;-86
2021/12/10 02:25:21;;;;;;;3.72;1.98;;;6.30;96.20;;;;;;5032127;28;20077;-86
2021/12/10 02:27:47;;;;;;;3.05;1.60;;;6.30;96.20;;;;;;5018018;28;20013;-86
2021/12/10 02:30:14;;;;;;;2.72;1.50;;;6.30;96.20;;;;;;5019073;28;20114;-86
2021/12/10 02:32:40;;;;;;;2.72;1.42;;;6.30;96.20;;;;;;5008294;28;20029;-88
2021/12/10 02:35:10;;;;;;;2.83;1.73;;;6.30;96.20;;;;;;4998637;28;20098;-88
2021/12/10 02:37:36;;;;;;;2.47;1.60;;;6.30;96.30;;;;;;4998678;28;20567;-87
2021/12/10 02:40:04;;;;;;;1.95;1.25;;;6.30;96.30;;;;;;5006713;28;20028;-88
2021/12/10 02:42:29;;;;;;;3.55;1.75;;;6.30;96.40;;;;;;5021423;28;23060;-88
2021/12/10 02:44:55;;;;;;;3.25;1.38;;;6.30;96.40;;;;;;5031598;28;20032;-87
2021/12/10 02:47:22;;;;;;;2.90;1.25;;;6.30;96.40;;;;;;4991188;28;20035;-86
2021/12/10 02:49:48;;;;;;;2.53;1.33;;;6.40;96.40;;;;;;5029961;28;20024;-87
2021/12/10 02:52:15;;;;;;;3.75;1.25;;;6.40;96.40;;;;;;5005414;28;20028;-86
2021/12/10 02:54:44;;;;;;;1.98;1.10;;;6.40;96.40;;;;;;5028646;28;20090;-86
2021/12/10 02:57:13;;;;;;;1.23;1.00;;;6.40;96.50;;;;;;5007623;28;20201;-87
2021/12/10 02:59:39;;;;;;;2.17;1.13;;;6.40;96.50;;;;;;5021897;28;20615;-86
2021/12/10 03:02:13;;;;;;;3.95;1.60;;;6.50;96.60;;;;;;5008629;28;20027;-87
2021/12/10 03:04:39;;;;;;;2.95;0.90;;;6.40;96.50;;;;;;5006221;28;21257;-88
2021/12/10 03:07:12;;;;;;;3.42;1.10;;;6.50;96.60;;;;;;5011150;28;20029;-88
2021/12/10 03:09:38;;;;;;;2.08;1.23;;;6.50;96.60;;;;;;5021226;28;20112;-89
2021/12/10 03:12:05;;;;;;;3.72;1.00;;;6.50;96.60;;;;;;5016049;28;20043;-88
2021/12/10 03:14:35;;;;;;;4.30;1.20;;;6.50;96.60;;;;;;5002581;28;20029;-87
2021/12/10 03:17:08;;;;;;;1.65;0.90;;;6.60;96.60;;;;;;5033110;28;20043;-90
2021/12/10 03:19:34;;;;;;;;;;;6.60;96.50;;;;;;5004749;28;20028;-87
2021/12/10 03:22:02;;;;;;;1.90;0.80;;;6.60;96.20;;;;;;5035502;28;20209;-89
2021/12/10 03:24:29;;;;;;;1.55;0.98;;;6.60;96.40;;;;;;5010586;28;20485;-88
2021/12/10 03:26:57;;;;;;;1.80;0.80;;;6.60;96.40;;;;;;5004881;28;20229;-87
2021/12/10 03:29:25;;;;;;;2.20;0.75;;;6.70;96.40;;;;;;5003424;28;20499;-87
2021/12/10 03:31:53;;;;;;;1.10;0.88;;;6.70;96.40;;;;;;5020755;28;20048;-88
2021/12/10 03:34:19;;;;;;;2.75;1.00;;;6.60;96.30;;;;;;5025034;28;20032;-88
2021/12/10 03:36:48;;;;;;;2.55;0.88;;;6.70;96.30;;;;;;4996196;28;20723;-88
2021/12/10 03:39:17;;;;;;;2.55;0.75;;;6.70;96.30;;;;;;5010933;28;20162;-87
2021/12/10 03:41:43;;;;;;;2.40;0.88;;;6.70;96.20;;;;;;5024946;28;20029;-87
2021/12/10 03:44:11;;;;;;;1.98;0.85;;;6.70;96.20;;;;;;5028625;28;20282;-89
2021/12/10 03:46:37;;;;;;;3.33;0.90;;;6.70;96.30;;;;;;5015409;28;20082;-88
2021/12/10 03:49:05;;;;;;;1.77;0.75;;;6.70;96.20;;;;;;5011216;28;20322;-88
2021/12/10 03:51:34;;;;;;;1.35;0.60;;;6.70;96.20;;;;;;5006804;28;20028;-88
2021/12/10 03:54:00;;;;;;;2.40;1.23;;;6.70;96.20;;;;;;5029367;28;20245;-87
2021/12/10 03:56:29;;;;;;;2.67;0.75;;;6.80;96.30;;;;;;5009958;28;20123;-86
2021/12/10 03:58:59;;;;;;;2.28;0.55;;;6.80;96.20;;;;;;5014044;28;20232;-87
2021/12/10 04:01:29;;;;;;;2.05;0.80;;;6.80;96.10;;;;;;5019890;28;20499;-88
2021/12/10 04:03:56;;;;;;;1.33;0.57;;;6.80;96.50;;;;;;5009601;28;20303;-87
2021/12/10 04:06:22;;;;;;;3.60;0.80;;;6.80;96.10;;;;;;5018108;28;20025;-88
2021/12/10 04:08:49;;;;;;;2.72;0.85;;;6.80;96.10;;;;;;5018175;28;20177;-87
2021/12/10 04:11:16;;;;;;;2.20;0.90;;;6.80;96.10;;;;;;5039048;28;20384;-87
2021/12/10 04:13:48;;;;;;;0.75;0.73;;;6.80;96.00;;;;;;5010536;28;20032;-86
2021/12/10 04:16:17;;;;;;;1.67;0.80;;;6.80;95.90;;;;;;5014533;28;20067;-87
2021/12/10 04:18:48;;;;;;;3.08;0.73;;;6.80;96.00;;;;;;5005854;28;20473;-87
2021/12/10 04:21:15;;;;;;;2.30;0.70;;;6.80;95.90;;;;;;5007760;28;20039;-86
2021/12/10 04:23:41;;;;;;;1.67;0.80;;;6.70;95.80;;;;;;5028989;28;20405;-88
2021/12/10 04:26:09;;;;;;;2.28;0.70;;;6.80;95.90;;;;;;5013108;28;20037;-88
2021/12/10 04:28:35;;;;;;;1.40;0.70;;;6.70;95.80;;;;;;5023944;28;20628;-86
2021/12/10 04:31:01;;;;;;;1.60;0.70;;;6.70;95.80;;;;;;5033220;28;20123;-87
2021/12/10 04:33:26;;;;;;;0.98;0.50;;;6.70;95.80;;;;;;5026034;28;20074;-89
2021/12/10 04:35:57;;;;;;;2.83;0.90;;;6.70;95.60;;;;;;5001837;28;20089;-87
2021/12/10 04:38:25;;;;;;;1.63;0.73;;;6.60;95.40;;;;;;5015350;28;20036;-87
2021/12/10 04:40:53;;;;;;;2.10;0.80;;;6.60;95.40;;;;;;5002275;28;21321;-87
2021/12/10 04:43:20;;;;;;;0.98;0.85;;;6.60;95.50;;;;;;5015086;28;20126;-87
2021/12/10 04:45:50;;;;;;;2.03;0.63;;;6.60;95.50;;;;;;5025857;28;20033;-89
2021/12/10 04:48:16;;;;;;;1.17;0.57;;;6.60;95.50;;;;;;5014709;28;20024;-88
2021/12/10 04:50:42;;;;;;;1.52;0.90;;;6.60;95.40;;;;;;5020767;28;20070;-90
2021/12/10 04:53:09;;;;;;;0.40;0.40;;;6.50;95.40;;;;;;5015124;28;20520;-87
2021/12/10 04:55:35;;;;;;;2.25;0.63;;;6.50;95.40;;;;;;5028372;28;20032;-88
2021/12/10 04:58:03;;;;;;;1.17;0.70;;;6.40;95.40;;;;;;4997187;28;20222;-87
2021/12/10 05:00:34;;;;;;;0.95;0.63;;;6.40;95.40;;;;;;5025636;28;20037;-87
2021/12/10 05:03:04;;;;;;;1.52;0.63;;;6.40;95.40;;;;;;5001660;28;20368;-87
2021/12/10 05:05:30;;;;;;;0.50;0.50;;;6.40;95.40;;;;;;5028229;28;20504;-88
2021/12/10 05:07:56;;;;;;;1.42;0.70;;;6.30;95.50;;;;;;4998639;28;20407;-90
2021/12/10 05:10:22;;;;;;;1.17;0.77;;;6.30;95.50;;;;;;5019885;28;20028;-87
2021/12/10 05:12:48;;;;;;;1.58;0.75;;;6.30;95.50;;;;;;5015271;28;20020;-88
2021/12/10 05:15:18;;;;;;;1.52;0.60;;;6.30;95.50;;;;;;5011210;28;20402;-87
2021/12/10 05:17:47;;;;;;;1.63;0.60;;;6.20;95.40;;;;;;5033488;28;20040;-87
2021/12/10 05:20:19;;;;;;;0.70;0.60;;;6.20;95.40;;;;;;5027839;28;20061;-87
2021/12/10 05:22:48;;;;;;;1.67;0.50;;;6.20;95.50;;;;;;5032642;28;20074;-87
2021/12/10 05:25:14;;;;;;;0.57;0.50;;;6.20;95.50;;;;;;4996999;28;20045;-89
2021/12/10 05:27:41;;;;;;;1.08;0.60;;;6.20;95.60;;;;;;5000267;28;20390;-87
2021/12/10 05:30:10;;;;;;;2.40;0.68;;;6.20;95.60;;;;;;5009152;28;20041;-88
2021/12/10 05:32:36;;;;;;;2.33;0.90;;;6.20;95.60;;;;;;4999317;28;20283;-87
2021/12/10 05:35:04;;;;;;;0.82;0.60;;;6.20;95.70;;;;;;5006200;28;20024;-89
2021/12/10 05:37:30;;;;;;;0.70;0.50;;;6.20;95.70;;;;;;5028329;28;20491;-87
2021/12/10 05:39:55;;;;;;;1.13;0.60;;;6.20;95.80;;;;;;5017839;28;20158;-88
2021/12/10 05:42:21;;;;;;;0.90;0.55;;;6.20;95.70;;;;;;5024808;28;20020;-89
2021/12/10 05:44:47;;;;;;;1.05;0.68;;;6.20;95.80;;;;;;5007360;28;20218;-88
2021/12/10 05:47:12;;;;;;;0.65;0.50;;;6.20;95.70;;;;;;5015917;28;20021;-88
2021/12/10 05:49:38;;;;;;;0.40;0.40;;;6.20;95.80;;;;;;5011638;28;20131;-88
2021/12/10 05:52:05;;;;;;;0.63;0.52;;;6.20;95.90;;;;;;5028835;28;20094;-87
2021/12/10 05:54:31;;;;;;;0.50;0.50;;;6.20;95.80;;;;;;5030006;28;20040;-88
2021/12/10 05:56:57;;;;;;;0.70;0.45;;;6.20;95.80;;;;;;5014109;28;20056;-87
2021/12/10 05:59:23;;;;;;;0.55;0.40;;;6.20;95.80;;;;;;4997955;28;20401;-87
2021/12/10 06:01:49;;;;;;;1.20;0.50;;;6.20;95.80;;;;;;5023398;28;20790;-87
2021/12/10 06:04:16;;;;;;;1.17;0.40;;;6.20;95.80;;;;;;5022364;28;20497;-87
2021/12/10 06:06:42;;;;;;;1.10;0.30;;;6.20;95.80;;;;;;5019297;28;20094;-87
2021/12/10 06:09:09;;;;;;;1.40;0.70;;;6.20;95.70;;;;;;5016161;28;20338;-89
2021/12/10 06:11:36;;;;;;;4.05;0.55;;;6.20;95.70;;;;;;5010629;28;20051;-88
2021/12/10 06:14:02;;;;;;;1.15;0.60;;;6.20;95.90;;;;;;5008174;28;20529;-87
2021/12/10 06:16:28;;;;;;;0.45;0.40;;;6.20;95.70;;;;;;5020466;28;20033;-87
2021/12/10 06:18:54;;;;;;;0.50;0.50;;;6.20;95.60;;;;;;5018364;28;20190;-87
2021/12/10 06:21:20;;;;;;;0.40;0.40;;;6.20;95.60;;;;;;5041549;28;20492;-89
2021/12/10 06:23:46;;;;;;;0.98;0.52;;;6.20;95.60;;;;;;5017081;28;20029;-88
2021/12/10 06:26:11;;;;;;;0.77;0.60;;;6.20;95.60;;;;;;4995829;28;20277;-88
2021/12/10 06:28:44;;;;;;;0.52;0.50;;;6.20;95.60;;;;;;5007838;28;20029;-87
2021/12/10 06:31:10;;;;;;;1.88;0.60;;;6.20;95.60;;;;;;5024767;28;20304;-87
2021/12/10 06:33:36;;;;;;;1.13;0.50;;;6.20;95.60;;;;;;5038632;28;20485;-89
2021/12/10 06:36:03;;;;;;;0.57;0.57;;;6.10;95.50;;;;;;4991762;28;20297;-88
2021/12/10 06:38:30;;;;;;;0.68;0.60;;;6.20;95.50;;;;;;5051348;28;20029;-87
2021/12/10 06:40:56;;;;;;;1.02;0.60;;;6.10;95.50;;;;;;5002920;28;20035;-87
2021/12/10 06:43:22;;;;;;;1.52;0.65;;;6.10;95.40;;;;;;5003250;28;20397;-87
2021/12/10 06:45:51;;;;;;;1.27;0.65;;;6.10;95.50;;;;;;5015954;28;20082;-87
2021/12/10 06:48:18;;;;;;;1.02;0.75;;;6.10;95.40;;;;;;5037877;28;20155;-87
2021/12/10 06:50:48;;;;;;;0.82;0.47;;;6.10;95.40;;;;;;5009313;28;20025;-87
2021/12/10 06:53:16;;;;;;;0.60;0.60;;;6.10;95.40;;;;;;5032515;28;20032;-88
2021/12/10 06:55:42;;;;;;;1.60;0.70;;;6.10;95.40;;;;;;5000062;28;20043;-87
2021/12/10 06:58:08;;;;;;;0.85;0.60;;;6.10;95.40;;;;;;5020008;28;20229;-86
2021/12/10 07:00:40;;;;;;;1.13;0.80;;;6.10;95.40;;;;;;5049743;28;20393;-86
2021/12/10 07:03:07;;;;;;;0.50;0.50;;;6.00;95.40;;;;;;5010451;28;20116;-87
2021/12/10 07:05:33;;;;;;;0.73;0.60;;;6.00;95.40;;;;;;5028476;28;20020;-86
2021/12/10 07:07:59;;;;;;;0.63;0.63;;;6.00;95.50;;;;;;5006973;28;20043;-86
2021/12/10 07:10:25;;;;;;;0.57;0.55;;;6.00;95.40;;;;;;5011565;28;20083;-88
2021/12/10 07:12:51;;;;;;;0.90;0.90;;;6.00;95.50;;;;;;4993732;28;20503;-87
2021/12/10 07:15:17;;;;;;;0.80;0.70;;;6.00;95.50;;;;;;5020008;28;20390;-87
2021/12/10 07:17:46;;;;;;;0.90;0.70;;;5.90;95.40;;;;;;5006894;28;20060;-88
2021/12/10 07:20:14;;;;;;;0.70;0.70;;;5.90;95.50;;;;;;5036332;28;20181;-86
2021/12/10 07:22:40;;;;;;;1.30;0.90;;;5.90;95.50;;;;;;5025650;28;20037;-87
2021/12/10 07:25:07;;;;;;;1.48;0.98;;;5.90;95.60;;;;;;5017496;28;20601;-87
2021/12/10 07:27:32;;;;;;;0.80;0.77;;;5.90;95.60;;;;;;5020784;28;20036;-87
2021/12/10 07:29:58;;;;;;;1.52;1.17;;;5.90;95.90;;;;;;5024906;28;20025;-87
2021/12/10 07:32:24;;;;;;;1.02;0.73;;;5.90;95.50;;;;;;5006635;28;20500;-88
2021/12/10 07:34:50;;;;;;;0.65;0.65;;;5.90;95.50;;;;;;5016066;28;20560;-87
2021/12/10 07:37:16;;;;;;;0.90;0.90;;;5.90;95.50;;;;;;5012144;28;20040;-87
2021/12/10 07:39:42;;;;;;;1.45;0.80;;;5.90;95.60;;;;;;4999937;28;20056;-87
2021/12/10 07:42:09;;;;;;;1.25;0.90;;;5.90;95.90;;;;;;5015875;28;20393;-87
2021/12/10 07:44:36;;;;;;;0.70;0.70;;;5.90;95.60;;;;;;5002929;28;20079;-86
2021/12/10 07:47:09;;;;;;;1.05;0.90;;;5.90;95.60;;;;;;5048799;28;20233;-87
2021/12/10 07:49:37;;;;;;;1.40;1.00;;;5.90;95.60;;;;;;5021622;28;20124;-87
2021/12/10 07:52:06;;;;;;;0.73;0.73;;;5.90;95.60;;;;;;5000566;28;20021;-86
2021/12/10 07:54:32;;;;;;;1.02;0.80;;;5.90;95.60;;;;;;5021922;28;20035;-86
2021/12/10 07:56:57;;;;;;;0.70;0.70;;;5.80;95.60;;;;;;5002532;28;20032;-87
2021/12/10 07:59:23;;;;;;;1.20;1.10;;;5.80;95.70;;;;;;5011194;28;20246;-86
2021/12/10 08:01:49;;;;;;;0.80;0.73;;;5.90;95.70;;;;;;5010230;28;20029;-87
2021/12/10 08:04:15;;;;;;;0.80;0.80;;;5.80;95.60;;;;;;4993525;28;20438;-86
2021/12/10 08:06:41;;;;;;;0.80;0.80;;;5.80;95.60;;;;;;5002721;28;20021;-86
2021/12/10 08:09:08;;;;;;;0.98;0.85;;;5.90;95.70;;;;;;5009107;28;20021;-86
2021/12/10 08:11:35;;;;;;;0.88;0.73;;;5.80;95.60;;;;;;5027268;28;20613;-87
2021/12/10 08:14:01;;;;;;;1.20;1.10;;;5.80;95.50;;;;;;5011492;28;20029;-87
2021/12/10 08:16:27;;;;;;;0.93;0.90;;;5.80;95.50;;;;;;5008357;28;20310;-86
2021/12/10 08:18:54;;;;;;;1.15;1.00;;;5.80;95.50;;;;;;5017775;28;20447;-86
2021/12/10 08:21:22;;;;;;;1.20;1.10;;;5.80;95.60;;;;;;5040421;28;20029;-88
2021/12/10 08:23:49;;;;;;;0.85;0.85;;;5.80;95.60;;;;;;5003433;28;20243;-87
2021/12/10 08:26:16;;;;;;;1.10;1.00;;;5.80;95.60;;;;;;5010462;28;20082;-86
2021/12/10 08:28:42;;;;;;;1.17;1.00;;;5.80;95.90;;;;;;5009452;28;20024;-86
2021/12/10 08:31:08;;;;;;;1.15;1.05;;;5.80;95.60;;;;;;5001545;28;20052;-86
2021/12/10 08:33:35;;;;;;;1.60;1.10;;;5.80;95.60;;;;;;5013645;28;20024;-86
2021/12/10 08:36:05;;;;;;;0.93;0.88;;;5.80;95.50;;;;;;5025063;28;20538;-86
2021/12/10 08:38:31;;;;;;;1.30;1.20;;;5.70;95.60;;;;;;5006775;28;20319;-86
2021/12/10 08:41:01;;;;;;;1.40;1.30;;;5.80;95.70;;;;;;5037552;28;20032;-88
2021/12/10 08:43:29;;;;;;;1.77;1.30;;;5.70;95.60;;;;;;5008247;28;20120;-86
2021/12/10 08:45:56;;;;;;;1.15;1.10;;;5.70;95.60;;;;;;5048821;28;21177;-87
2021/12/10 08:48:24;;;;;;;1.10;1.00;;;5.70;95.50;;;;;;5002651;28;20048;-87
2021/12/10 08:50:50;;;;;;;1.20;1.15;;;5.70;95.60;;;;;;5033744;28;20508;-87
2021/12/10 08:53:16;;;;;;;1.30;1.20;;;5.70;95.70;;;;;;5000782;28;20032;-88
2021/12/10 08:55:51;;;;;;;1.55;1.00;;;5.70;95.60;;;;;;5007421;28;20016;-87
2021/12/10 08:58:18;;;;;;;1.00;1.00;;;5.60;95.60;;;;;;4992403;28;20081;-87
2021/12/10 09:00:49;;;;;;;1.00;0.90;;;5.60;95.70;;;;;;5021619;28;20555;-87
2021/12/10 09:03:16;;;;;;;1.08;0.90;;;5.60;95.70;;;;;;4988235;28;20334;-87
2021/12/10 09:05:41;;;;;;;0.75;0.75;;;5.60;95.80;;;;;;5015599;28;20033;-88
2021/12/10 09:08:08;;;;;;;0.80;0.80;;;5.60;95.70;;;;;;5011294;28;20041;-87
2021/12/10 09:10:38;;;;;;;0.88;0.88;;;5.60;95.60;;;;;;5005640;28;20551;-88
2021/12/10 09:13:13;;;;;;;1.13;1.02;;;5.60;95.50;;;;;;5001920;28;20170;-87
2021/12/10 09:16:00;;;;;;;1.05;1.00;;;5.60;95.50;;;;;;5028114;28;20029;-88
2021/12/10 09:18:27;;;;;;;2.30;1.00;;;5.60;95.60;;;;;;4985092;28;20075;-87
2021/12/10 09:20:57;;;;;;;1.90;1.30;;;5.50;95.80;;;;;;5024750;28;21136;-87
2021/12/10 09:23:25;;;;;;;1.80;1.20;;;5.50;95.80;;;;;;5008167;28;20317;-88
2021/12/10 09:25:53;;;;;;;1.27;1.05;;;5.60;95.90;;;;;;5028864;28;20543;-87
2021/12/10 09:28:19;;;;;;;0.98;0.90;;;5.50;96.00;;;;;;4990516;28;20047;-84
2021/12/10 09:30:49;;;;;;;1.00;0.90;;;5.50;96.10;;;;;;5018265;28;20041;-84
2021/12/10 09:33:15;;;;;;;1.42;1.08;;;5.60;96.10;;;;;;4988428;28;20028;-84
2021/12/10 09:35:41;;;;;;;1.10;1.00;;;5.60;96.10;;;;;;5014635;28;20032;-84
2021/12/10 09:38:07;;;;;;;0.90;0.90;;;5.60;96.10;;;;;;5025687;28;20031;-84
2021/12/10 09:40:37;;;;;;;1.20;1.00;;;5.60;96.00;;;;;;5002836;28;20241;-84
2021/12/10 09:43:05;;;;;;;1.10;1.00;;;5.60;96.00;;;;;;5002679;28;20043;-84
2021/12/10 09:45:32;;;;;;;0.88;0.88;;;5.60;96.10;;;;;;5005127;28;20025;-84
2021/12/10 09:48:00;;;;;;;0.80;0.80;;;5.60;96.10;;;;;;5000452;28;20035;-84
2021/12/10 09:50:31;;;;;;;1.00;0.80;;;5.60;96.10;;;;;;5025375;28;20638;-84
2021/12/10 09:52:58;;;;;;;0.80;0.80;;;5.60;96.10;;;;;;5025341;28;20355;-84
2021/12/10 09:55:24;;;;;;;0.90;0.90;;;5.60;96.10;;;;;;5013425;28;20185;-84
2021/12/10 09:57:52;;;;;;;1.10;1.00;;;5.60;96.20;;;;;;5025647;28;20329;-83
2021/12/10 10:00:32;;;;;;;1.00;1.00;;;5.60;96.20;;;;;;5026256;28;20100;-84
2021/12/10 10:02:59;;;;;;;1.25;1.15;;;5.60;96.10;;;;;;5035140;28;20041;-84
2021/12/10 10:05:27;;;;;;;0.80;0.80;;;5.60;96.20;;;;;;4996946;28;20033;-84
2021/12/10 10:07:58;;;;;;;0.77;0.77;;;5.60;96.20;;;;;;5015525;28;20017;-84
2021/12/10 10:10:28;;;;;;;1.10;1.00;;;5.60;96.20;;;;;;5007872;28;20104;-84
2021/12/10 10:12:56;;;;;;;1.70;1.55;;;5.60;96.20;;;;;;5024899;28;20068;-84
2021/12/10 10:15:28;;;;;;;1.42;1.10;;;5.60;96.20;;;;;;5002417;28;20033;-83
2021/12/10 10:18:00;;;;;;;0.88;0.88;;;5.60;96.20;;;;;;5031157;28;20052;-83
2021/12/10 10:20:29;;;;;;;2.40;1.33;;;5.70;96.20;;;;;;5012863;28;20674;-86
2021/12/10 10:22:55;;;;;;;1.30;1.20;;;5.60;96.20;;;;;;5005831;28;20040;-87
2021/12/10 10:25:25;;;;;;;1.42;1.15;;;5.70;96.50;;;;;;4996107;28;20344;-87
2021/12/10 10:27:53;;;;;;;1.42;1.20;;;5.70;96.20;;;;;;5001577;28;20017;-87
2021/12/10 10:30:28;;;;;;;1.05;0.95;;;5.60;96.30;;;;;;4997705;28;20500;-87
2021/12/10 10:33:00;;;;;;;1.23;1.02;;;5.70;96.40;;;;;;5016645;28;20400;-86
2021/12/10 10:35:31;;;;;;;1.35;1.25;;;5.70;96.40;;;;;;5017949;28;20432;-87
2021/12/10 10:37:58;;;;;;;1.30;1.20;;;5.70;96.40;;;;;;5002297;28;20033;-87
2021/12/10 10:40:34;;;;;;;1.70;1.50;;;5.80;96.40;;;;;;5019295;28;20196;-87
2021/12/10 10:43:01;;;;;;;3.00;1.40;;;5.70;96.40;;;;;;5017046;28;20766;-87
2021/12/10 10:45:31;;;;;;;2.08;1.50;;;5.80;96.30;;;;;;5001560;28;20300;-87
2021/12/10 10:47:57;;;;;;;1.20;1.10;;;5.80;96.30;;;;;;5006875;28;20616;-87
2021/12/10 10:51:01;;;;;;;2.42;1.40;;;5.80;96.30;;;;;;5012690;28;21304;-86
2021/12/10 10:53:31;;;;;;;2.22;2.03;;;5.80;96.20;;;;;;5002913;28;20095;-87
2021/12/10 10:56:06;;;;;;;1.98;1.77;;;5.80;96.30;;;;;;5032450;28;20128;-86
2021/12/10 10:58:36;;;;;;;3.13;1.63;;;5.80;96.30;;;;;;5012300;28;20433;-86
2021/12/10 11:01:14;;;;;;;1.73;1.63;;;5.80;96.40;;;;;;5002868;28;20283;-87
2021/12/10 11:03:46;;;;;;;2.00;1.90;;;5.90;96.40;;;;;;5017769;28;20091;-86
2021/12/10 11:06:17;;;;;;;2.08;1.80;;;5.90;96.40;;;;;;5032559;28;20115;-86
2021/12/10 11:08:46;;;;;;;2.65;1.92;;;5.90;96.50;;;;;;5018220;28;20009;-87
2021/12/10 11:11:16;;;;;;;2.90;1.50;;;5.90;96.50;;;;;;5016154;28;20055;-86
2021/12/10 11:13:45;;;;;;;2.17;1.63;;;5.90;96.40;;;;;;5013697;28;20108;-86
2021/12/10 11:16:25;;;;;;;2.33;1.80;;;6.00;96.40;;;;;;4992087;28;20039;-87
2021/12/10 11:19:00;;;;;;;1.95;1.85;;;6.00;96.40;;;;;;5012166;28;20033;-87
2021/12/10 11:21:47;;;;;;;1.88;1.65;;;6.00;96.30;;;;;;5014382;28;20134;-87
2021/12/10 11:24:16;;;;;;;1.95;1.77;;;6.10;96.40;;;;;;5042408;28;20412;-87
2021/12/10 11:26:47;;;;;;;2.55;1.77;;;6.00;96.00;;;;;;5028181;28;20055;-86
2021/12/10 11:29:35;;;;;;;1.67;1.50;;;6.00;96.00;;;;;;5011193;28;20028;-87
2021/12/10 11:32:16;;;;;;;1.70;1.60;;;6.00;96.00;;;;;;5030066;28;20052;-86
2021/12/10 11:34:47;;;;;;;1.90;1.63;;;6.00;96.10;;;;;;4999575;28;20029;-86
2021/12/10 11:37:15;;;;;;;1.35;1.25;;;6.00;96.10;;;;;;5000727;28;20036;-86
2021/12/10 11:39:49;;;;;;;1.60;1.50;;;6.00;96.00;;;;;;5007908;28;20017;-86
2021/12/10 11:42:36;;;;;;;1.35;1.25;;;6.00;95.80;;;;;;5011606;28;20024;-86
2021/12/10 11:45:31;;;;;;;5.45;3.28;;;6.00;95.70;;;;;;4986212;28;20246;-86
2021/12/10 11:48:06;;;;;;;6.10;3.67;;;6.00;95.80;;;;;;5027317;28;20511;-86
2021/12/10 11:50:34;;;;;;;5.43;3.55;;;6.00;95.80;;;;;;5002196;28;20027;-86
2021/12/10 11:53:07;;;;;;;4.97;2.40;;;6.00;95.70;;;;;;4996699;28;20713;-86
2021/12/10 11:55:35;;;;;;;3.10;2.08;;;6.00;95.80;;;;;;5008130;28;20495;-86
2021/12/10 11:58:03;;;;;;;3.53;2.28;;;6.00;95.90;;;;;;5034679;28;20484;-86
2021/12/10 12:00:34;;;;;;;3.25;1.85;;;6.00;95.90;;;;;;5032606;28;20029;-86
2021/12/10 12:03:06;;;;;;;1.65;1.50;;;6.00;95.80;;;;;;5008472;28;20130;-86
2021/12/10 12:05:40;;;;;;;1.30;1.20;;;6.00;95.90;;;;;;5038358;28;20374;-86
2021/12/10 12:08:09;;;;;;;2.00;1.77;;;6.00;96.00;;;;;;5018344;28;20029;-86
2021/12/10 12:10:40;;;;;;;2.20;2.00;;;6.00;96.10;;;;;;5005726;28;20082;-86
2021/12/10 12:13:22;;;;;;;1.73;1.63;;;6.00;96.00;;;;;;5032560;28;20025;-86
2021/12/10 12:16:00;;;;;;;1.67;1.40;;;6.00;96.20;;;;;;5023275;28;20028;-86
2021/12/10 12:18:38;;;;;;;1.23;1.13;;;6.00;96.00;;;;;;5025511;28;20493;-87
2021/12/10 12:27:06;;;;;;;1.20;1.10;;;6.10;95.90;;;;;;5019622;28;20048;-87
2021/12/10 12:29:43;;;;;;;1.10;1.00;;;6.10;95.90;;;;;;5026169;28;20028;-87
2021/12/10 12:32:13;;;;;;;1.40;1.30;;;6.10;95.90;;;;;;4992197;28;20136;-86
2021/12/10 12:34:38;;;;;;;1.17;1.15;;;6.10;96.20;;;;;;4995716;28;20028;-87
2021/12/10 12:37:07;;;;;;;1.05;1.05;;;6.10;95.80;;;;;;5030410;28;20725;-87
2021/12/10 12:39:39;;;;;;;1.05;0.95;;;6.10;95.70;;;;;;5010115;28;20911;-86
2021/12/10 12:42:27;;;;;;;0.90;0.90;;;6.10;95.60;;;;;;5019386;28;20029;-87
2021/12/10 12:45:04;;;;;;;0.90;0.90;;;6.10;95.40;;;;;;5035982;28;20056;-86
2021/12/10 12:47:36;;;;;;;1.15;1.08;;;6.00;95.40;;;;;;5008199;28;20025;-86
2021/12/10 12:50:31;;;;;;;1.30;1.20;;;6.00;95.50;;;;;;5012458;28;20032;-86
2021/12/10 12:53:04;;;;;;;1.23;1.13;;;6.00;95.20;;;;;;5004951;28;20640;-87
2021/12/10 12:55:33;;;;;;;1.55;1.45;;;6.00;95.20;;;;;;5044975;28;20160;-86
2021/12/10 12:58:36;;;;;;;1.73;1.63;;;5.90;95.20;;;;;;5012050;28;20581;-86
2021/12/10 13:01:25;;;;;;;1.38;1.27;;;5.90;95.10;;;;;;5025102;28;20127;-87
2021/12/10 13:04:10;;;;;;;1.75;1.65;;;5.90;95.00;;;;;;5024968;28;20707;-86
2021/12/10 13:06:54;;;;;;;1.95;1.80;;;5.80;95.20;;;;;;5018269;28;20021;-86
2021/12/10 13:09:34;;;;;;;2.80;1.63;;;5.80;95.30;;;;;;5007136;28;20033;-86
2021/12/10 13:14:36;;;;;;;1.90;1.80;;;5.80;95.60;;;;;;5027084;28;20546;-87
2021/12/10 13:17:37;;;;;;;1.92;1.80;;;5.80;95.60;;;;;;5005022;28;20549;-86
2021/12/10 13:20:12;;;;;;;2.75;2.38;;;5.80;95.40;;;;;;4997254;28;20524;-87
2021/12/10 13:22:39;;;;;;;2.25;2.05;;;5.80;95.30;;;;;;5015622;28;20474;-87
2021/12/10 13:25:12;;;;;;;3.47;2.60;;;5.80;95.40;;;;;;5007901;28;20760;-87
2021/12/10 13:27:40;;;;;;;2.50;2.30;;;5.80;95.30;;;;;;5001112;28;20320;-87